createdAt,value
2019-03-28T00:01:49.355Z,7.40
2019-03-28T00:04:19.357Z,7.87
2019-03-28T00:06:49.483Z,7.33
2019-03-28T00:09:19.839Z,9.17
2019-03-28T00:11:49.916Z,8.47
2019-03-28T00:14:19.945Z,7.80
2019-03-28T00:16:49.988Z,9.90
2019-03-28T00:19:20.024Z,8.13
2019-03-28T00:21:50.067Z,7.27
2019-03-28T00:24:42.060Z,7.73
2019-03-28T00:27:12.085Z,9.43
2019-03-28T00:29:42.093Z,10.77
2019-03-28T00:32:12.132Z,12.20
2019-03-28T00:34:42.192Z,13.27
2019-03-28T00:37:12.185Z,11.30
2019-03-28T00:39:42.195Z,10.57
2019-03-28T00:42:12.225Z,9.87
2019-03-28T00:44:42.236Z,8.33
2019-03-28T00:47:12.270Z,13.90
2019-03-28T00:49:42.330Z,8.27
2019-03-28T00:52:12.806Z,8.77
2019-03-28T00:54:42.833Z,7.67
2019-03-28T00:57:12.873Z,11.30
2019-03-28T00:59:42.875Z,11.93
2019-03-28T01:02:12.919Z,11.90
2019-03-28T01:04:42.964Z,8.87
2019-03-28T01:07:12.965Z,8.33
2019-03-28T01:09:43.008Z,7.90
2019-03-28T01:12:13.000Z,8.67
2019-03-28T01:14:43.046Z,9.13
2019-03-28T01:17:13.079Z,7.90
2019-03-28T01:19:43.084Z,7.83
2019-03-28T01:22:13.203Z,8.10
2019-03-28T01:24:43.204Z,23.73
2019-03-28T01:27:13.222Z,19.23
2019-03-28T01:29:43.232Z,9.77
2019-03-28T01:32:13.259Z,11.00
2019-03-28T01:34:43.284Z,9.00
2019-03-28T01:37:13.316Z,10.53
2019-03-28T01:39:43.428Z,11.20
2019-03-28T01:42:13.452Z,7.70
2019-03-28T01:44:43.460Z,8.17
2019-03-28T01:47:13.484Z,7.23
2019-03-28T01:49:43.519Z,8.77
2019-03-28T01:52:13.591Z,8.83
2019-03-28T01:54:43.612Z,9.67
2019-03-28T01:57:13.662Z,8.40
2019-03-28T01:59:43.664Z,7.23
2019-03-28T02:02:13.684Z,8.10
2019-03-28T02:04:43.701Z,9.10
2019-03-28T02:07:13.740Z,10.20
2019-03-28T02:09:43.744Z,9.63
2019-03-28T02:12:13.785Z,8.93
2019-03-28T02:14:43.850Z,8.27
2019-03-28T02:17:13.844Z,9.63
2019-03-28T02:19:43.840Z,9.53
2019-03-28T02:22:13.880Z,10.10
2019-03-28T02:24:43.916Z,9.40
2019-03-28T02:27:24.153Z,9.73
2019-03-28T02:29:51.748Z,12.27
2019-03-28T02:32:40.561Z,14.70
2019-03-28T02:35:29.345Z,13.53
2019-03-28T02:37:59.766Z,12.47
2019-03-28T02:40:48.536Z,7.80
2019-03-28T02:43:37.366Z,7.10
2019-03-28T02:46:26.129Z,7.20
2019-03-28T02:49:15.074Z,8.20
2019-03-28T02:51:45.098Z,8.60
2019-03-28T02:54:33.917Z,7.70
2019-03-28T02:57:22.711Z,7.43
2019-03-28T03:02:47.248Z,7.20
2019-03-28T03:05:36.091Z,7.73
2019-03-28T03:08:24.854Z,7.60
2019-03-28T03:11:13.661Z,7.17
2019-03-28T03:13:43.664Z,7.80
2019-03-28T03:19:27.027Z,7.50
2019-03-28T03:22:15.814Z,7.23
2019-03-28T03:24:45.817Z,7.13
2019-03-28T03:27:27.264Z,7.73
2019-03-28T03:30:08.148Z,7.07
2019-03-28T03:32:49.702Z,7.97
2019-03-28T03:35:30.418Z,6.83
2019-03-28T03:38:11.204Z,7.63
2019-03-28T03:40:41.285Z,6.10
2019-03-28T03:43:30.106Z,6.40
2019-03-28T03:49:07.972Z,6.83
2019-03-28T03:51:38.068Z,7.73
2019-03-28T03:54:08.162Z,7.53
2019-03-28T03:56:38.260Z,8.63
2019-03-28T03:59:08.344Z,8.83
2019-03-28T04:01:38.472Z,8.07
2019-03-28T04:04:27.259Z,7.47
2019-03-28T04:07:16.060Z,7.17
2019-03-28T04:09:46.091Z,6.87
2019-03-28T04:12:34.865Z,6.40
2019-03-28T04:15:05.058Z,6.83
2019-03-28T04:17:35.372Z,6.63
2019-03-28T04:20:05.793Z,6.37
2019-03-28T04:22:36.902Z,6.27
2019-03-28T04:25:26.608Z,5.93
2019-03-28T04:28:30.852Z,5.57
2019-03-28T04:30:47.262Z,6.47
2019-03-28T04:33:36.083Z,6.73
2019-03-28T04:36:24.808Z,7.40
2019-03-28T04:39:13.584Z,6.60
2019-03-28T04:41:43.639Z,6.97
2019-03-28T04:44:13.649Z,7.03
2019-03-28T04:46:43.700Z,6.87
2019-03-28T04:49:15.755Z,6.73
2019-03-28T04:51:45.456Z,6.63
2019-03-28T04:54:34.282Z,7.60
2019-03-28T04:57:23.092Z,6.57
2019-03-28T05:00:32.221Z,6.10
2019-03-28T05:03:21.038Z,6.50
2019-03-28T05:06:09.823Z,6.20
2019-03-28T05:08:39.871Z,5.93
2019-03-28T05:11:09.874Z,6.63
2019-03-28T05:13:39.904Z,5.57
2019-03-28T05:16:28.744Z,6.30
2019-03-28T05:19:17.532Z,6.63
2019-03-28T05:21:47.600Z,5.93
2019-03-28T05:24:36.453Z,6.57
2019-03-28T05:27:25.277Z,6.30
2019-03-28T05:30:14.125Z,6.00
2019-03-28T05:32:44.156Z,6.57
2019-03-28T05:35:14.202Z,6.23
2019-03-28T05:37:44.207Z,5.73
2019-03-28T05:40:14.239Z,6.63
2019-03-28T05:42:44.280Z,6.20
2019-03-28T05:45:14.393Z,6.73
2019-03-28T05:47:44.462Z,6.53
2019-03-28T05:50:33.276Z,5.90
2019-03-28T05:53:14.681Z,5.67
2019-03-28T05:55:44.786Z,6.10
2019-03-28T05:58:14.799Z,5.80
2019-03-28T06:00:44.901Z,6.63
2019-03-28T06:03:33.716Z,7.03
2019-03-28T06:06:22.545Z,5.80
2019-03-28T06:08:53.354Z,6.67
2019-03-28T06:11:43.012Z,6.40
2019-03-28T06:14:31.783Z,6.90
2019-03-28T06:17:20.616Z,6.10
2019-03-28T06:20:09.536Z,6.27
2019-03-28T06:22:39.841Z,5.93
2019-03-28T06:25:28.620Z,6.20
2019-03-28T06:30:55.787Z,6.73
2019-03-28T06:33:43.649Z,7.33
2019-03-28T06:36:32.496Z,6.40
2019-03-28T06:42:09.614Z,9.83
2019-03-28T06:44:39.682Z,6.60
2019-03-28T06:47:28.490Z,6.87
2019-03-28T06:50:17.272Z,6.90
2019-03-28T06:58:55.433Z,7.47
2019-03-28T07:02:03.879Z,6.73
2019-03-28T07:07:47.228Z,6.80
2019-03-28T07:10:36.533Z,7.47
2019-03-28T07:13:26.481Z,7.10
2019-03-28T07:16:15.316Z,7.83
2019-03-28T07:19:04.105Z,18.63
2019-03-28T07:24:28.600Z,8.87
2019-03-28T07:27:17.547Z,9.07
2019-03-28T07:33:36.576Z,7.90
2019-03-28T07:36:25.392Z,7.43
2019-03-28T07:39:14.201Z,8.67
2019-03-28T07:45:12.509Z,7.27
2019-03-28T07:48:01.276Z,7.27
2019-03-28T07:50:33.481Z,7.70
2019-03-28T07:53:22.025Z,8.47
2019-03-28T07:56:03.784Z,7.00
2019-03-28T07:58:45.377Z,8.00
2019-03-28T08:01:26.249Z,8.40
2019-03-28T08:04:07.847Z,8.03
2019-03-28T08:06:50.326Z,7.57
2019-03-28T08:09:36.773Z,7.33
2019-03-28T08:12:22.345Z,7.47
2019-03-28T08:14:56.931Z,8.10
2019-03-28T08:17:37.601Z,7.10
2019-03-28T08:20:18.347Z,6.93
2019-03-28T08:22:59.096Z,8.27
2019-03-28T08:25:39.812Z,8.27
2019-03-28T08:28:10.028Z,8.07
2019-03-28T08:30:40.685Z,7.80
2019-03-28T08:33:11.399Z,7.57
2019-03-28T08:35:41.480Z,7.80
2019-03-28T08:38:11.476Z,7.63
2019-03-28T08:40:43.131Z,7.40
2019-03-28T08:43:14.725Z,7.73
2019-03-28T08:45:44.864Z,7.93
2019-03-28T08:48:14.889Z,8.13
2019-03-28T08:50:44.920Z,13.03
2019-03-28T08:53:14.945Z,7.40
2019-03-28T08:55:44.946Z,7.70
2019-03-28T08:58:14.988Z,9.80
2019-03-28T09:00:52.360Z,11.77
2019-03-28T09:03:16.704Z,8.33
2019-03-28T09:05:48.350Z,7.77
2019-03-28T09:08:18.481Z,8.17
2019-03-28T09:10:48.484Z,7.27
2019-03-28T09:13:18.485Z,7.60
2019-03-28T09:15:57.865Z,7.73
2019-03-28T09:18:30.996Z,6.83
2019-03-28T09:21:01.771Z,8.67
2019-03-28T09:23:31.763Z,7.87
2019-03-28T09:26:04.402Z,7.90
2019-03-28T09:28:33.450Z,8.37
2019-03-28T09:31:03.565Z,8.20
2019-03-28T09:33:33.698Z,8.03
2019-03-28T09:36:03.702Z,7.90
2019-03-28T09:38:33.963Z,7.23
2019-03-28T09:41:03.972Z,6.67
2019-03-28T09:43:34.000Z,7.30
2019-03-28T09:46:04.022Z,6.73
2019-03-28T09:48:34.166Z,7.13
2019-03-28T09:51:04.281Z,7.30
2019-03-28T09:53:34.631Z,7.63
2019-03-28T09:56:05.420Z,7.43
2019-03-28T09:58:35.421Z,7.10
2019-03-28T10:01:05.469Z,6.83
2019-03-28T10:03:35.478Z,6.27
2019-03-28T10:06:05.820Z,6.90
2019-03-28T10:08:35.825Z,6.93
2019-03-28T10:11:05.854Z,7.53
2019-03-28T10:13:35.867Z,6.57
2019-03-28T10:16:05.925Z,6.43
2019-03-28T10:18:36.001Z,6.90
2019-03-28T10:21:06.048Z,7.17
2019-03-28T10:23:36.088Z,7.03
2019-03-28T10:26:06.627Z,5.93
2019-03-28T10:28:36.754Z,6.10
2019-03-28T10:31:16.242Z,6.80
2019-03-28T10:33:38.521Z,5.10
2019-03-28T10:36:08.578Z,5.93
2019-03-28T10:38:38.669Z,5.53
2019-03-28T10:41:08.724Z,5.83
2019-03-28T10:43:38.827Z,4.87
2019-03-28T10:46:08.876Z,5.43
2019-03-28T10:48:38.953Z,5.10
2019-03-28T10:51:09.065Z,5.23
2019-03-28T10:53:39.105Z,5.07
2019-03-28T10:56:21.003Z,5.47
2019-03-28T10:58:40.872Z,5.20
2019-03-28T11:01:11.057Z,4.97
2019-03-28T11:03:41.101Z,5.37
2019-03-28T11:06:11.152Z,4.83
2019-03-28T11:08:41.233Z,5.03
2019-03-28T11:11:11.268Z,4.83
2019-03-28T11:13:41.339Z,5.40
2019-03-28T11:16:14.666Z,4.83
2019-03-28T11:18:43.121Z,4.60
2019-03-28T11:21:13.150Z,4.67
2019-03-28T11:23:43.213Z,3.10
2019-03-28T11:26:13.253Z,2.30
2019-03-28T11:28:43.371Z,2.83
2019-03-28T11:31:13.379Z,2.73
2019-03-28T11:33:43.456Z,2.47
2019-03-28T11:36:13.504Z,2.57
2019-03-28T11:38:43.568Z,2.50
2019-03-28T11:41:13.627Z,2.47
2019-03-28T11:43:43.661Z,2.63
2019-03-28T11:46:13.704Z,3.20
2019-03-28T11:48:43.792Z,2.70
2019-03-28T11:51:13.845Z,3.40
2019-03-28T11:53:43.940Z,3.00
2019-03-28T11:56:14.021Z,2.67
2019-03-28T11:58:44.060Z,3.20
2019-03-28T12:01:14.133Z,3.10
2019-03-28T12:03:44.171Z,3.10
2019-03-28T12:06:14.228Z,4.00
2019-03-28T12:08:44.272Z,3.23
2019-03-28T12:11:14.335Z,2.87
2019-03-28T12:13:45.314Z,3.00
2019-03-28T12:16:15.455Z,3.13
2019-03-28T12:18:45.501Z,3.40
2019-03-28T12:21:15.540Z,2.90
2019-03-28T12:23:45.657Z,2.77
2019-03-28T12:26:15.677Z,3.33
2019-03-28T12:28:45.727Z,3.10
2019-03-28T12:31:16.463Z,3.37
2019-03-28T12:33:47.030Z,3.60
2019-03-28T12:36:17.065Z,3.30
2019-03-28T12:38:47.137Z,3.47
2019-03-28T12:41:17.202Z,3.53
2019-03-28T12:43:47.253Z,3.50
2019-03-28T12:46:17.349Z,3.40
2019-03-28T12:48:47.384Z,3.43
2019-03-28T12:51:17.457Z,3.90
2019-03-28T12:53:47.508Z,3.10
2019-03-28T12:56:17.541Z,3.33
2019-03-28T12:58:48.582Z,3.50
2019-03-28T13:01:18.630Z,3.20
2019-03-28T13:03:48.672Z,3.40
2019-03-28T13:06:18.738Z,3.40
2019-03-28T13:08:48.792Z,3.50
2019-03-28T13:11:19.616Z,3.60
2019-03-28T13:13:49.934Z,3.43
2019-03-28T13:16:19.992Z,3.43
2019-03-28T13:18:50.031Z,3.00
2019-03-28T13:21:20.126Z,3.53
2019-03-28T13:23:50.160Z,4.23
2019-03-28T13:26:20.211Z,3.27
2019-03-28T13:28:50.262Z,3.13
2019-03-28T13:31:20.475Z,2.87
2019-03-28T13:33:50.525Z,3.50
2019-03-28T13:36:20.667Z,3.20
2019-03-28T13:38:50.760Z,3.17
2019-03-28T13:41:20.803Z,3.33
2019-03-28T13:43:50.908Z,3.00
2019-03-28T13:46:20.945Z,2.90
2019-03-28T13:48:50.988Z,3.20
2019-03-28T13:51:21.101Z,3.27
2019-03-28T13:53:52.223Z,2.33
2019-03-28T13:56:22.428Z,2.40
2019-03-28T13:58:52.469Z,2.80
2019-03-28T14:01:22.646Z,2.60
2019-03-28T14:03:52.807Z,2.47
2019-03-28T14:06:22.877Z,3.20
2019-03-28T14:08:52.924Z,2.40
2019-03-28T14:11:23.001Z,2.40
2019-03-28T14:13:53.041Z,2.63
2019-03-28T14:16:23.673Z,2.20
2019-03-28T14:18:53.793Z,2.43
2019-03-28T14:21:23.872Z,2.57
2019-03-28T14:23:53.928Z,2.73
2019-03-28T14:26:24.006Z,2.73
2019-03-28T14:28:54.064Z,3.03
2019-03-28T14:31:35.225Z,2.60
2019-03-28T14:34:05.370Z,3.00
2019-03-28T14:36:54.256Z,2.70
2019-03-28T14:42:50.867Z,2.57
2019-03-28T14:45:39.686Z,3.10
2019-03-28T14:48:28.560Z,2.60
2019-03-28T14:50:58.751Z,3.00
2019-03-28T14:53:29.006Z,3.40
2019-03-28T14:55:59.476Z,3.50
2019-03-28T14:58:50.026Z,3.60
2019-03-28T15:01:38.852Z,3.17
2019-03-28T15:04:27.705Z,3.10
2019-03-28T15:06:57.783Z,3.00
2019-03-28T15:09:46.702Z,3.83
2019-03-28T15:12:35.531Z,3.20
2019-03-28T15:15:44.742Z,3.47
2019-03-28T15:18:33.556Z,3.53
2019-03-28T15:21:22.477Z,3.60
2019-03-28T15:23:52.709Z,3.97
2019-03-28T15:26:41.822Z,3.47
2019-03-28T15:29:44.723Z,3.80
2019-03-28T15:35:08.130Z,3.40
2019-03-28T15:37:38.294Z,3.47
2019-03-28T15:40:27.116Z,3.67
2019-03-28T15:43:15.075Z,3.40
2019-03-28T15:45:45.183Z,3.30
2019-03-28T15:48:34.037Z,2.90
2019-03-28T15:54:16.749Z,3.93
2019-03-28T15:56:46.816Z,3.33
2019-03-28T15:59:35.679Z,3.30
2019-03-28T16:05:33.224Z,3.57
2019-03-28T16:08:13.924Z,2.90
2019-03-28T16:10:44.000Z,2.47
2019-03-28T16:13:32.909Z,2.73
2019-03-28T16:16:21.767Z,2.70
2019-03-28T16:19:10.589Z,3.27
2019-03-28T16:21:59.480Z,3.07
2019-03-28T16:24:48.354Z,3.47
2019-03-28T16:27:37.200Z,2.77
2019-03-28T16:30:44.804Z,3.50
2019-03-28T16:33:33.668Z,3.40
2019-03-28T16:36:22.520Z,3.30
2019-03-28T16:39:04.557Z,3.87
2019-03-28T16:41:34.707Z,2.87
2019-03-28T16:44:23.601Z,3.87
2019-03-28T16:47:12.466Z,3.80
2019-03-28T16:49:44.938Z,14.40
2019-03-28T16:52:33.793Z,6.07
2019-03-28T16:55:26.551Z,5.20
2019-03-28T16:58:27.338Z,4.00
2019-03-28T17:00:45.017Z,4.47
2019-03-28T17:03:33.869Z,5.43
2019-03-28T17:06:43.033Z,7.03
2019-03-28T17:09:32.009Z,6.17
2019-03-28T17:12:20.926Z,6.57
2019-03-28T17:15:10.253Z,5.33
2019-03-28T17:17:40.505Z,4.40
2019-03-28T17:20:10.851Z,4.90
2019-03-28T17:22:59.828Z,4.73
2019-03-28T17:25:48.770Z,4.30
2019-03-28T17:28:37.656Z,5.10
2019-03-28T17:31:26.472Z,5.10
2019-03-28T17:34:15.443Z,4.33
2019-03-28T17:36:45.537Z,4.77
2019-03-28T17:39:15.574Z,4.17
2019-03-28T17:41:45.675Z,4.47
2019-03-28T17:44:15.808Z,4.40
2019-03-28T17:46:45.851Z,4.47
2019-03-28T17:49:15.895Z,4.20
2019-03-28T17:51:45.992Z,4.50
2019-03-28T17:54:16.037Z,3.37
2019-03-28T17:56:46.124Z,3.87
2019-03-28T17:59:16.239Z,4.23
2019-03-28T18:01:46.420Z,4.00
2019-03-28T18:04:22.653Z,4.67
2019-03-28T18:06:48.316Z,4.13
2019-03-28T18:09:18.514Z,4.33
2019-03-28T18:11:48.608Z,4.10
2019-03-28T18:14:18.704Z,4.03
2019-03-28T18:16:48.782Z,3.00
2019-03-28T18:19:18.844Z,3.60
2019-03-28T18:22:02.469Z,3.67
2019-03-28T18:24:21.092Z,3.73
2019-03-28T18:26:51.786Z,4.27
2019-03-28T18:29:22.160Z,3.50
2019-03-28T18:31:52.733Z,3.50
2019-03-28T18:34:22.967Z,3.60
2019-03-28T18:36:53.051Z,3.80
2019-03-28T18:39:23.090Z,3.63
2019-03-28T18:41:56.351Z,4.50
2019-03-28T18:44:24.875Z,3.70
2019-03-28T18:46:54.982Z,4.30
2019-03-28T18:49:25.032Z,4.00
2019-03-28T18:51:55.153Z,4.53
2019-03-28T18:54:25.252Z,4.10
2019-03-28T18:56:55.329Z,4.33
2019-03-28T18:59:25.399Z,3.60
2019-03-28T19:01:55.475Z,3.40
2019-03-28T19:04:25.525Z,3.90
2019-03-28T19:06:57.769Z,4.40
2019-03-28T19:09:27.430Z,4.50
2019-03-28T19:11:57.529Z,4.23
2019-03-28T19:14:27.568Z,4.60
2019-03-28T19:16:57.699Z,4.10
2019-03-28T19:19:39.225Z,3.87
2019-03-28T19:22:01.137Z,4.00
2019-03-28T19:24:31.199Z,4.03
2019-03-28T19:27:01.720Z,3.93
2019-03-28T19:29:31.793Z,3.83
2019-03-28T19:32:01.870Z,3.87
2019-03-28T19:34:32.717Z,4.23
2019-03-28T19:37:02.960Z,3.60
2019-03-28T19:39:33.692Z,3.80
2019-03-28T19:42:04.705Z,4.10
2019-03-28T19:44:34.935Z,4.10
2019-03-28T19:47:05.016Z,4.47
2019-03-28T19:49:35.250Z,4.03
2019-03-28T19:52:05.353Z,4.60
2019-03-28T19:54:35.974Z,4.23
2019-03-28T19:57:06.484Z,4.43
2019-03-28T19:59:36.562Z,4.73
2019-03-28T20:02:07.935Z,4.10
2019-03-28T20:04:38.136Z,4.80
2019-03-28T20:07:20.877Z,4.50
2019-03-28T20:09:39.952Z,4.57
2019-03-28T20:12:10.008Z,4.33
2019-03-28T20:14:40.077Z,4.50
2019-03-28T20:17:10.118Z,4.73
2019-03-28T20:19:40.199Z,4.63
2019-03-28T20:22:10.256Z,4.80
2019-03-28T20:24:40.686Z,3.93
2019-03-28T20:27:10.916Z,4.40
2019-03-28T20:29:41.180Z,4.03
2019-03-28T20:32:11.917Z,4.40
2019-03-28T20:34:42.212Z,4.67
2019-03-28T20:37:12.273Z,4.07
2019-03-28T20:39:42.308Z,4.10
2019-03-28T20:42:12.366Z,4.50
2019-03-28T20:44:42.480Z,3.63
2019-03-28T20:47:12.825Z,3.87
2019-03-28T20:49:46.482Z,3.93
2019-03-28T20:52:15.227Z,4.60
2019-03-28T20:54:45.280Z,4.77
2019-03-28T20:57:15.362Z,4.13
2019-03-28T20:59:46.774Z,4.50
2019-03-28T21:02:17.144Z,4.23
2019-03-28T21:04:47.341Z,4.87
2019-03-28T21:07:20.141Z,4.00
2019-03-28T21:09:50.219Z,4.80
2019-03-28T21:12:20.398Z,4.40
2019-03-28T21:14:50.460Z,4.27
2019-03-28T21:17:27.391Z,4.77
2019-03-28T21:19:57.427Z,4.57
2019-03-28T21:22:27.504Z,4.73
2019-03-28T21:24:57.486Z,4.73
2019-03-28T21:27:27.566Z,3.70
2019-03-28T21:29:57.615Z,5.00
2019-03-28T21:32:27.704Z,4.60
2019-03-28T21:34:57.709Z,4.80
2019-03-28T21:37:27.741Z,4.83
2019-03-28T21:39:57.735Z,4.90
2019-03-28T21:42:27.884Z,5.00
2019-03-28T21:44:58.452Z,4.23
2019-03-28T21:47:28.633Z,4.97
2019-03-28T21:49:58.656Z,5.67
2019-03-28T21:52:29.007Z,5.10
2019-03-28T21:54:59.023Z,4.97
2019-03-28T21:57:29.032Z,4.87
2019-03-28T21:59:59.049Z,5.40
2019-03-28T22:02:29.053Z,4.87
2019-03-28T22:04:59.129Z,4.83
2019-03-28T22:07:29.135Z,5.50
2019-03-28T22:09:59.167Z,6.10
2019-03-28T22:12:29.897Z,7.27
2019-03-28T22:15:00.476Z,6.83
2019-03-28T22:17:30.505Z,6.57
2019-03-28T22:20:00.527Z,6.80
2019-03-28T22:22:30.556Z,6.80
2019-03-28T22:25:00.575Z,7.73
2019-03-28T22:27:30.618Z,10.37
2019-03-28T22:30:00.624Z,11.60
2019-03-28T22:32:30.627Z,7.10
2019-03-28T22:35:00.685Z,6.10
2019-03-28T22:37:30.687Z,6.53
2019-03-28T22:40:00.729Z,9.30
2019-03-28T22:42:30.745Z,9.40
2019-03-28T22:45:00.793Z,8.70
2019-03-28T22:47:34.792Z,8.70
2019-03-28T22:50:02.472Z,10.17
2019-03-28T22:52:32.552Z,13.23
2019-03-28T22:55:02.580Z,7.60
2019-03-28T22:57:32.633Z,6.53
2019-03-28T23:00:04.230Z,6.87
2019-03-28T23:02:34.463Z,6.70
2019-03-28T23:05:05.044Z,7.10
2019-03-28T23:07:35.045Z,6.70
2019-03-28T23:10:05.516Z,6.97
2019-03-28T23:12:35.560Z,5.97
2019-03-28T23:15:06.380Z,6.70
2019-03-28T23:17:36.383Z,7.07
2019-03-28T23:20:08.088Z,6.63
2019-03-28T23:22:38.096Z,6.67
2019-03-28T23:25:08.454Z,7.77
2019-03-28T23:27:38.428Z,8.13
2019-03-28T23:30:09.321Z,7.90
2019-03-28T23:32:39.369Z,9.20
2019-03-28T23:35:09.853Z,11.27
2019-03-28T23:37:39.856Z,12.10
2019-03-28T23:40:10.188Z,13.13
2019-03-28T23:42:40.216Z,14.63
2019-03-28T23:45:12.939Z,15.90
2019-03-28T23:47:43.150Z,13.37
2019-03-28T23:50:13.289Z,9.90
2019-03-28T23:52:43.330Z,8.80
2019-03-28T23:55:13.352Z,7.30
2019-03-28T23:57:43.464Z,7.03
